sensor_id;sensor_type;location;lat;lon;timestamp;pressure;altitude;pressure_sealevel;temperature;humidity
6096;BME280;25081;42.698;23.298;2023-01-29T00:02:01;95415.38;;;-0.18;88.00
6096;BME280;25081;42.698;23.298;2023-01-29T00:04:11;95408.59;;;-0.24;88.01
6096;BME280;25081;42.698;23.298;2023-01-29T00:06:22;95405.58;;;-0.30;88.24
6096;BME280;25081;42.698;23.298;2023-01-29T00:08:34;95414.14;;;-0.27;88.64
6096;BME280;25081;42.698;23.298;2023-01-29T00:10:44;95417.19;;;-0.32;88.66
6096;BME280;25081;42.698;23.298;2023-01-29T00:12:55;95415.72;;;-0.17;88.83
6096;BME280;25081;42.698;23.298;2023-01-29T00:15:07;95419.83;;;-0.14;88.46
6096;BME280;25081;42.698;23.298;2023-01-29T00:17:18;95421.20;;;-0.24;88.56
6096;BME280;25081;42.698;23.298;2023-01-29T00:19:28;95419.03;;;-0.11;88.72
6096;BME280;25081;42.698;23.298;2023-01-29T00:21:39;95420.56;;;-0.22;88.59
6096;BME280;25081;42.698;23.298;2023-01-29T00:23:50;95425.53;;;-0.19;88.83
6096;BME280;25081;42.698;23.298;2023-01-29T00:26:01;95427.38;;;-0.11;88.90
6096;BME280;25081;42.698;23.298;2023-01-29T00:28:11;95424.59;;;0.04;89.44
6096;BME280;25081;42.698;23.298;2023-01-29T00:30:22;95426.39;;;0.04;88.37
6096;BME280;25081;42.698;23.298;2023-01-29T00:32:33;95428.19;;;0.03;87.60
6096;BME280;25081;42.698;23.298;2023-01-29T00:34:44;95430.27;;;-0.01;87.96
6096;BME280;25081;42.698;23.298;2023-01-29T00:36:54;95430.88;;;-0.07;88.08
6096;BME280;25081;42.698;23.298;2023-01-29T00:39:05;95434.97;;;-0.08;88.59
6096;BME280;25081;42.698;23.298;2023-01-29T00:41:16;95423.36;;;-0.06;88.54
6096;BME280;25081;42.698;23.298;2023-01-29T00:43:45;95435.23;;;-0.11;88.50
6096;BME280;25081;42.698;23.298;2023-01-29T00:48:52;95430.32;;;0.04;88.86
6096;BME280;25081;42.698;23.298;2023-01-29T00:51:03;95432.45;;;0.04;88.37
6096;BME280;25081;42.698;23.298;2023-01-29T00:53:13;95430.39;;;-0.06;88.29
6096;BME280;25081;42.698;23.298;2023-01-29T00:55:24;95427.72;;;-0.10;88.52
6096;BME280;25081;42.698;23.298;2023-01-29T00:57:35;95429.98;;;0.03;88.79
6096;BME280;25081;42.698;23.298;2023-01-29T00:59:45;95429.76;;;0.14;88.53
6096;BME280;25081;42.698;23.298;2023-01-29T01:01:56;95435.50;;;-0.01;88.15
6096;BME280;25081;42.698;23.298;2023-01-29T01:04:25;95428.44;;;-0.04;88.69
6096;BME280;25081;42.698;23.298;2023-01-29T01:06:36;95433.38;;;-0.01;88.95
6096;BME280;25081;42.698;23.298;2023-01-29T01:08:47;95429.39;;;-0.09;88.73
6096;BME280;25081;42.698;23.298;2023-01-29T01:11:16;95432.69;;;-0.21;88.93
6096;BME280;25081;42.698;23.298;2023-01-29T01:13:26;95428.39;;;-0.26;88.88
6096;BME280;25081;42.698;23.298;2023-01-29T01:15:39;95434.67;;;-0.37;89.07
6096;BME280;25081;42.698;23.298;2023-01-29T01:17:49;95426.44;;;-0.24;89.35
6096;BME280;25081;42.698;23.298;2023-01-29T01:19:58;95434.75;;;-0.42;89.07
6096;BME280;25081;42.698;23.298;2023-01-29T01:22:10;95427.20;;;-0.45;89.75
6096;BME280;25081;42.698;23.298;2023-01-29T01:24:20;95427.74;;;-0.55;89.96
6096;BME280;25081;42.698;23.298;2023-01-29T01:26:31;95426.05;;;-0.47;90.24
6096;BME280;25081;42.698;23.298;2023-01-29T01:28:42;95424.46;;;-0.26;90.06
6096;BME280;25081;42.698;23.298;2023-01-29T01:30:52;95422.18;;;-0.39;89.48
6096;BME280;25081;42.698;23.298;2023-01-29T01:33:03;95430.45;;;-0.47;89.52
6096;BME280;25081;42.698;23.298;2023-01-29T01:35:14;95427.26;;;-0.55;89.88
6096;BME280;25081;42.698;23.298;2023-01-29T01:37:25;95431.89;;;-0.49;90.35
6096;BME280;25081;42.698;23.298;2023-01-29T01:39:36;95432.53;;;-0.51;90.35
6096;BME280;25081;42.698;23.298;2023-01-29T01:41:47;95424.58;;;-0.45;90.16
6096;BME280;25081;42.698;23.298;2023-01-29T01:43:58;95430.34;;;-0.42;89.69
6096;BME280;25081;42.698;23.298;2023-01-29T01:46:09;95431.89;;;-0.35;89.83
6096;BME280;25081;42.698;23.298;2023-01-29T01:48:20;95425.50;;;-0.37;89.88
6096;BME280;25081;42.698;23.298;2023-01-29T01:50:32;95422.00;;;-0.41;89.74
6096;BME280;25081;42.698;23.298;2023-01-29T01:52:42;95433.11;;;-0.43;89.96
6096;BME280;25081;42.698;23.298;2023-01-29T01:54:53;95431.55;;;-0.50;90.29
6096;BME280;25081;42.698;23.298;2023-01-29T01:57:05;95436.45;;;-0.51;90.80
6096;BME280;25081;42.698;23.298;2023-01-29T01:59:15;95435.97;;;-0.50;90.92
6096;BME280;25081;42.698;23.298;2023-01-29T02:01:25;95435.64;;;-0.38;90.95
6096;BME280;25081;42.698;23.298;2023-01-29T02:03:38;95434.87;;;-0.48;90.97
6096;BME280;25081;42.698;23.298;2023-01-29T02:06:06;95435.11;;;-0.55;91.68
6096;BME280;25081;42.698;23.298;2023-01-29T02:08:36;95441.88;;;-0.48;91.69
6096;BME280;25081;42.698;23.298;2023-01-29T02:11:04;95437.07;;;-0.39;91.71
6096;BME280;25081;42.698;23.298;2023-01-29T02:13:14;95442.52;;;-0.37;91.56
6096;BME280;25081;42.698;23.298;2023-01-29T02:15:25;95443.08;;;-0.29;91.42
6096;BME280;25081;42.698;23.298;2023-01-29T02:17:36;95433.97;;;-0.39;91.24
6096;BME280;25081;42.698;23.298;2023-01-29T02:19:50;95436.64;;;-0.48;91.10
6096;BME280;25081;42.698;23.298;2023-01-29T02:22:19;95440.23;;;-0.49;91.98
6096;BME280;25081;42.698;23.298;2023-01-29T02:27:11;95444.87;;;-0.30;91.89
6096;BME280;25081;42.698;23.298;2023-01-29T02:29:24;95442.22;;;-0.34;91.53
6096;BME280;25081;42.698;23.298;2023-01-29T02:31:35;95438.55;;;-0.54;91.57
6096;BME280;25081;42.698;23.298;2023-01-29T02:33:50;95442.52;;;-0.50;91.87
6096;BME280;25081;42.698;23.298;2023-01-29T02:36:01;95445.68;;;-0.47;91.76
6096;BME280;25081;42.698;23.298;2023-01-29T02:38:12;95449.55;;;-0.37;91.95
6096;BME280;25081;42.698;23.298;2023-01-29T02:40:25;95450.62;;;-0.44;91.81
6096;BME280;25081;42.698;23.298;2023-01-29T02:42:37;95449.64;;;-0.43;91.97
6096;BME280;25081;42.698;23.298;2023-01-29T02:44:46;95451.23;;;-0.32;92.12
6096;BME280;25081;42.698;23.298;2023-01-29T02:46:59;95457.08;;;-0.38;91.95
6096;BME280;25081;42.698;23.298;2023-01-29T02:49:10;95463.99;;;-0.33;92.00
6096;BME280;25081;42.698;23.298;2023-01-29T02:51:22;95464.52;;;-0.30;91.64
6096;BME280;25081;42.698;23.298;2023-01-29T02:53:33;95464.33;;;-0.32;91.54
6096;BME280;25081;42.698;23.298;2023-01-29T02:55:44;95463.63;;;-0.38;91.58
6096;BME280;25081;42.698;23.298;2023-01-29T02:57:56;95459.39;;;-0.35;91.98
6096;BME280;25081;42.698;23.298;2023-01-29T03:00:09;95455.22;;;-0.42;92.00
6096;BME280;25081;42.698;23.298;2023-01-29T03:02:19;95461.52;;;-0.48;92.42
6096;BME280;25081;42.698;23.298;2023-01-29T03:04:30;95466.81;;;-0.44;92.60
6096;BME280;25081;42.698;23.298;2023-01-29T03:06:47;95465.69;;;-0.42;92.79
6096;BME280;25081;42.698;23.298;2023-01-29T03:08:57;95461.58;;;-0.44;92.76
6096;BME280;25081;42.698;23.298;2023-01-29T03:11:09;95461.66;;;-0.50;93.14
6096;BME280;25081;42.698;23.298;2023-01-29T03:13:19;95462.73;;;-0.43;93.53
6096;BME280;25081;42.698;23.298;2023-01-29T03:15:30;95462.59;;;-0.41;93.72
6096;BME280;25081;42.698;23.298;2023-01-29T03:17:42;95459.59;;;-0.46;93.68
6096;BME280;25081;42.698;23.298;2023-01-29T03:19:52;95462.98;;;-0.36;93.75
6096;BME280;25081;42.698;23.298;2023-01-29T03:22:03;95459.55;;;-0.37;93.04
6096;BME280;25081;42.698;23.298;2023-01-29T03:24:14;95464.78;;;-0.37;92.88
6096;BME280;25081;42.698;23.298;2023-01-29T03:26:42;95463.14;;;-0.38;92.42
6096;BME280;25081;42.698;23.298;2023-01-29T03:29:10;95468.02;;;-0.25;92.48
6096;BME280;25081;42.698;23.298;2023-01-29T03:31:39;95472.03;;;-0.31;92.01
6096;BME280;25081;42.698;23.298;2023-01-29T03:34:07;95477.73;;;-0.35;92.39
6096;BME280;25081;42.698;23.298;2023-01-29T03:36:20;95484.27;;;-0.35;92.16
6096;BME280;25081;42.698;23.298;2023-01-29T03:40:54;95466.56;;;-0.23;91.43
6096;BME280;25081;42.698;23.298;2023-01-29T03:43:08;95466.04;;;-0.27;91.15
6096;BME280;25081;42.698;23.298;2023-01-29T03:45:20;95472.92;;;-0.26;91.13
6096;BME280;25081;42.698;23.298;2023-01-29T03:47:34;95471.81;;;-0.37;90.96
6096;BME280;25081;42.698;23.298;2023-01-29T03:49:48;95467.48;;;-0.42;91.18
6096;BME280;25081;42.698;23.298;2023-01-29T03:51:59;95464.81;;;-0.33;91.63
6096;BME280;25081;42.698;23.298;2023-01-29T03:54:11;95465.92;;;-0.21;91.32
6096;BME280;25081;42.698;23.298;2023-01-29T03:56:26;95465.22;;;-0.27;91.11
6096;BME280;25081;42.698;23.298;2023-01-29T03:58:37;95463.42;;;-0.27;91.36
6096;BME280;25081;42.698;23.298;2023-01-29T04:00:48;95468.66;;;-0.27;91.37
6096;BME280;25081;42.698;23.298;2023-01-29T04:03:00;95467.87;;;-0.23;91.50
6096;BME280;25081;42.698;23.298;2023-01-29T04:05:10;95465.88;;;-0.25;91.44
6096;BME280;25081;42.698;23.298;2023-01-29T04:07:21;95467.09;;;-0.34;91.80
6096;BME280;25081;42.698;23.298;2023-01-29T04:09:35;95474.63;;;-0.35;92.02
6096;BME280;25081;42.698;23.298;2023-01-29T04:11:46;95465.83;;;-0.30;91.97
6096;BME280;25081;42.698;23.298;2023-01-29T04:13:55;95477.91;;;-0.33;91.74
6096;BME280;25081;42.698;23.298;2023-01-29T04:16:08;95479.31;;;-0.52;92.24
6096;BME280;25081;42.698;23.298;2023-01-29T04:18:18;95482.00;;;-0.48;92.98
6096;BME280;25081;42.698;23.298;2023-01-29T04:20:28;95480.78;;;-0.53;93.71
6096;BME280;25081;42.698;23.298;2023-01-29T04:22:39;95485.56;;;-0.49;93.72
6096;BME280;25081;42.698;23.298;2023-01-29T04:24:49;95486.16;;;-0.41;93.48
6096;BME280;25081;42.698;23.298;2023-01-29T04:27:08;95484.70;;;-0.40;93.04
6096;BME280;25081;42.698;23.298;2023-01-29T04:29:24;95491.45;;;-0.37;92.60
6096;BME280;25081;42.698;23.298;2023-01-29T04:31:31;95487.46;;;-0.41;92.19
6096;BME280;25081;42.698;23.298;2023-01-29T04:33:43;95478.64;;;-0.54;92.33
6096;BME280;25081;42.698;23.298;2023-01-29T04:36:00;95490.69;;;-0.47;92.69
6096;BME280;25081;42.698;23.298;2023-01-29T04:38:12;95484.17;;;-0.43;92.57
6096;BME280;25081;42.698;23.298;2023-01-29T04:40:24;95486.39;;;-0.48;92.44
6096;BME280;25081;42.698;23.298;2023-01-29T04:42:35;95490.31;;;-0.48;92.42
6096;BME280;25081;42.698;23.298;2023-01-29T04:44:46;95495.39;;;-0.37;92.58
6096;BME280;25081;42.698;23.298;2023-01-29T04:46:59;95489.22;;;-0.46;92.05
6096;BME280;25081;42.698;23.298;2023-01-29T04:49:14;95485.31;;;-0.69;92.45
6096;BME280;25081;42.698;23.298;2023-01-29T04:51:24;95490.50;;;-0.60;93.23
6096;BME280;25081;42.698;23.298;2023-01-29T04:53:36;95490.72;;;-0.43;92.98
6096;BME280;25081;42.698;23.298;2023-01-29T04:55:47;95485.83;;;-0.56;92.48
6096;BME280;25081;42.698;23.298;2023-01-29T04:57:59;95496.52;;;-0.63;92.69
6096;BME280;25081;42.698;23.298;2023-01-29T05:00:11;95492.16;;;-0.59;92.70
6096;BME280;25081;42.698;23.298;2023-01-29T05:02:21;95496.72;;;-0.61;92.63
6096;BME280;25081;42.698;23.298;2023-01-29T05:04:32;95492.89;;;-0.66;92.35
6096;BME280;25081;42.698;23.298;2023-01-29T05:06:42;95500.75;;;-0.66;92.65
6096;BME280;25081;42.698;23.298;2023-01-29T05:08:53;95499.37;;;-0.70;92.74
6096;BME280;25081;42.698;23.298;2023-01-29T05:11:04;95496.56;;;-0.73;92.95
6096;BME280;25081;42.698;23.298;2023-01-29T05:13:15;95497.69;;;-0.62;93.08
6096;BME280;25081;42.698;23.298;2023-01-29T05:15:26;95497.39;;;-0.59;93.10
6096;BME280;25081;42.698;23.298;2023-01-29T05:17:36;95502.88;;;-0.52;92.95
6096;BME280;25081;42.698;23.298;2023-01-29T05:19:46;95505.16;;;-0.53;92.76
6096;BME280;25081;42.698;23.298;2023-01-29T05:21:57;95506.32;;;-0.51;93.08
6096;BME280;25081;42.698;23.298;2023-01-29T05:24:11;95504.30;;;-0.44;92.88
6096;BME280;25081;42.698;23.298;2023-01-29T05:26:22;95500.03;;;-0.45;92.96
6096;BME280;25081;42.698;23.298;2023-01-29T05:28:50;95502.09;;;-0.48;92.61
6096;BME280;25081;42.698;23.298;2023-01-29T05:31:00;95508.38;;;-0.45;92.57
6096;BME280;25081;42.698;23.298;2023-01-29T05:33:13;95504.11;;;-0.46;92.30
6096;BME280;25081;42.698;23.298;2023-01-29T05:35:23;95510.10;;;-0.50;91.94
6096;BME280;25081;42.698;23.298;2023-01-29T05:37:33;95511.90;;;-0.50;92.50
6096;BME280;25081;42.698;23.298;2023-01-29T05:39:44;95511.00;;;-0.45;92.47
6096;BME280;25081;42.698;23.298;2023-01-29T05:41:54;95513.55;;;-0.49;92.27
6096;BME280;25081;42.698;23.298;2023-01-29T05:44:05;95512.49;;;-0.56;92.05
6096;BME280;25081;42.698;23.298;2023-01-29T05:46:16;95517.99;;;-0.60;92.44
6096;BME280;25081;42.698;23.298;2023-01-29T05:48:26;95520.83;;;-0.57;92.37
6096;BME280;25081;42.698;23.298;2023-01-29T05:50:37;95523.30;;;-0.55;92.42
6096;BME280;25081;42.698;23.298;2023-01-29T05:52:47;95523.79;;;-0.56;92.53
6096;BME280;25081;42.698;23.298;2023-01-29T05:54:58;95530.08;;;-0.49;92.55
6096;BME280;25081;42.698;23.298;2023-01-29T05:57:08;95524.61;;;-0.42;93.00
6096;BME280;25081;42.698;23.298;2023-01-29T05:59:19;95534.71;;;-0.33;92.89
6096;BME280;25081;42.698;23.298;2023-01-29T06:01:30;95528.80;;;-0.35;92.47
6096;BME280;25081;42.698;23.298;2023-01-29T06:03:40;95533.40;;;-0.33;92.45
6096;BME280;25081;42.698;23.298;2023-01-29T06:05:51;95536.55;;;-0.43;92.34
6096;BME280;25081;42.698;23.298;2023-01-29T06:08:01;95532.39;;;-0.36;92.36
6096;BME280;25081;42.698;23.298;2023-01-29T06:10:13;95543.31;;;-0.27;92.57
6096;BME280;25081;42.698;23.298;2023-01-29T06:12:23;95540.88;;;-0.24;92.92
6096;BME280;25081;42.698;23.298;2023-01-29T06:14:34;95540.16;;;-0.17;92.65
6096;BME280;25081;42.698;23.298;2023-01-29T06:16:44;95550.52;;;-0.11;92.40
6096;BME280;25081;42.698;23.298;2023-01-29T06:18:54;95538.81;;;1.22;99.31
6096;BME280;25081;42.698;23.298;2023-01-29T06:21:07;95530.53;;;4.83;100.00
6096;BME280;25081;42.698;23.298;2023-01-29T06:23:16;95542.54;;;3.92;81.93
6096;BME280;25081;42.698;23.298;2023-01-29T06:25:27;95542.20;;;2.75;79.36
6096;BME280;25081;42.698;23.298;2023-01-29T06:27:37;95546.81;;;1.68;82.92
6096;BME280;25081;42.698;23.298;2023-01-29T06:29:48;95551.67;;;1.29;85.42
6096;BME280;25081;42.698;23.298;2023-01-29T06:31:58;95559.08;;;0.68;87.27
6096;BME280;25081;42.698;23.298;2023-01-29T06:34:09;95565.34;;;0.57;88.74
6096;BME280;25081;42.698;23.298;2023-01-29T06:36:19;95565.30;;;0.35;89.43
6096;BME280;25081;42.698;23.298;2023-01-29T06:38:30;95561.70;;;2.36;99.76
6096;BME280;25081;42.698;23.298;2023-01-29T06:40:40;95561.92;;;1.70;85.73
6096;BME280;25081;42.698;23.298;2023-01-29T06:42:51;95566.78;;;1.31;85.72
6096;BME280;25081;42.698;23.298;2023-01-29T06:45:01;95573.06;;;0.76;86.50
6096;BME280;25081;42.698;23.298;2023-01-29T06:47:11;95567.70;;;2.99;100.00
6096;BME280;25081;42.698;23.298;2023-01-29T06:49:22;95552.30;;;5.27;88.33
6096;BME280;25081;42.698;23.298;2023-01-29T06:51:32;95552.64;;;6.39;79.13
6096;BME280;25081;42.698;23.298;2023-01-29T06:53:43;95561.11;;;6.09;65.94
6096;BME280;25081;42.698;23.298;2023-01-29T06:55:53;95567.81;;;3.66;71.83
6096;BME280;25081;42.698;23.298;2023-01-29T06:58:06;95584.33;;;2.20;78.21
6096;BME280;25081;42.698;23.298;2023-01-29T07:00:18;95582.06;;;1.57;81.61
6096;BME280;25081;42.698;23.298;2023-01-29T07:02:28;95586.20;;;1.38;86.02
6096;BME280;25081;42.698;23.298;2023-01-29T07:04:39;95578.60;;;3.28;80.64
6096;BME280;25081;42.698;23.298;2023-01-29T07:06:50;95583.62;;;2.52;78.56
6096;BME280;25081;42.698;23.298;2023-01-29T07:09:00;95582.44;;;2.00;80.76
6096;BME280;25081;42.698;23.298;2023-01-29T07:11:11;95589.66;;;1.17;84.14
6096;BME280;25081;42.698;23.298;2023-01-29T07:13:21;95597.91;;;1.04;85.42
6096;BME280;25081;42.698;23.298;2023-01-29T07:15:32;95592.64;;;0.82;86.45
6096;BME280;25081;42.698;23.298;2023-01-29T07:17:42;95597.06;;;0.81;87.15
6096;BME280;25081;42.698;23.298;2023-01-29T07:19:53;95612.00;;;0.67;87.27
6096;BME280;25081;42.698;23.298;2023-01-29T07:22:03;95608.53;;;0.63;87.93
6096;BME280;25081;42.698;23.298;2023-01-29T07:24:14;95611.18;;;0.67;88.11
6096;BME280;25081;42.698;23.298;2023-01-29T07:26:25;95609.77;;;0.72;88.52
6096;BME280;25081;42.698;23.298;2023-01-29T07:28:37;95603.52;;;0.69;88.05
6096;BME280;25081;42.698;23.298;2023-01-29T07:30:47;95609.33;;;0.59;88.04
6096;BME280;25081;42.698;23.298;2023-01-29T07:33:02;95615.82;;;0.55;88.44
6096;BME280;25081;42.698;23.298;2023-01-29T07:35:13;95616.64;;;0.55;88.85
6096;BME280;25081;42.698;23.298;2023-01-29T07:37:23;95610.41;;;0.70;89.11
6096;BME280;25081;42.698;23.298;2023-01-29T07:39:34;95612.58;;;0.75;89.30
6096;BME280;25081;42.698;23.298;2023-01-29T07:41:44;95615.67;;;0.88;89.83
6096;BME280;25081;42.698;23.298;2023-01-29T07:43:55;95623.80;;;0.81;88.50
6096;BME280;25081;42.698;23.298;2023-01-29T07:46:06;95623.80;;;0.67;87.44
6096;BME280;25081;42.698;23.298;2023-01-29T07:48:16;95620.06;;;0.52;87.30
6096;BME280;25081;42.698;23.298;2023-01-29T07:50:27;95626.98;;;0.57;88.09
6096;BME280;25081;42.698;23.298;2023-01-29T07:52:37;95616.98;;;0.56;87.70
6096;BME280;25081;42.698;23.298;2023-01-29T07:54:48;95609.81;;;0.59;88.05
6096;BME280;25081;42.698;23.298;2023-01-29T07:56:58;95622.00;;;0.36;88.18
6096;BME280;25081;42.698;23.298;2023-01-29T07:59:09;95623.44;;;0.62;88.84
6096;BME280;25081;42.698;23.298;2023-01-29T08:01:19;95630.73;;;0.54;88.92
6096;BME280;25081;42.698;23.298;2023-01-29T08:03:30;95629.39;;;0.50;88.88
6096;BME280;25081;42.698;23.298;2023-01-29T08:05:41;95631.34;;;0.48;88.98
6096;BME280;25081;42.698;23.298;2023-01-29T08:07:53;95633.91;;;0.58;89.10
6096;BME280;25081;42.698;23.298;2023-01-29T08:10:05;95638.72;;;0.67;88.94
6096;BME280;25081;42.698;23.298;2023-01-29T08:12:16;95632.38;;;0.69;88.55
6096;BME280;25081;42.698;23.298;2023-01-29T08:14:26;95639.48;;;0.59;87.87
6096;BME280;25081;42.698;23.298;2023-01-29T08:16:37;95631.56;;;0.55;87.73
6096;BME280;25081;42.698;23.298;2023-01-29T08:18:47;95636.95;;;0.53;87.63
6096;BME280;25081;42.698;23.298;2023-01-29T08:21:00;95638.52;;;0.60;87.98
6096;BME280;25081;42.698;23.298;2023-01-29T08:23:12;95638.11;;;0.55;87.84
6096;BME280;25081;42.698;23.298;2023-01-29T08:25:22;95636.92;;;0.67;87.37
6096;BME280;25081;42.698;23.298;2023-01-29T08:27:32;95638.17;;;0.45;86.71
6096;BME280;25081;42.698;23.298;2023-01-29T08:29:43;95635.42;;;0.33;87.61
6096;BME280;25081;42.698;23.298;2023-01-29T08:31:53;95642.08;;;0.41;87.85
6096;BME280;25081;42.698;23.298;2023-01-29T08:34:04;95647.08;;;0.66;87.72
6096;BME280;25081;42.698;23.298;2023-01-29T08:36:14;95651.78;;;0.59;86.78
6096;BME280;25081;42.698;23.298;2023-01-29T08:38:25;95655.29;;;0.67;87.44
6096;BME280;25081;42.698;23.298;2023-01-29T08:40:35;95650.50;;;0.63;86.89
6096;BME280;25081;42.698;23.298;2023-01-29T08:42:46;95651.51;;;0.66;87.03
6096;BME280;25081;42.698;23.298;2023-01-29T08:44:56;95653.16;;;0.67;86.82
6096;BME280;25081;42.698;23.298;2023-01-29T08:47:07;95656.08;;;0.64;86.69
6096;BME280;25081;42.698;23.298;2023-01-29T08:49:17;95655.34;;;0.71;86.00
6096;BME280;25081;42.698;23.298;2023-01-29T08:51:28;95654.98;;;0.84;85.74
6096;BME280;25081;42.698;23.298;2023-01-29T08:53:38;95658.69;;;0.95;85.54
6096;BME280;25081;42.698;23.298;2023-01-29T08:55:49;95665.47;;;0.84;85.48
6096;BME280;25081;42.698;23.298;2023-01-29T08:58:00;95666.63;;;0.99;85.38
6096;BME280;25081;42.698;23.298;2023-01-29T09:00:12;95668.94;;;1.02;84.62
6096;BME280;25081;42.698;23.298;2023-01-29T09:02:23;95676.41;;;1.11;84.78
6096;BME280;25081;42.698;23.298;2023-01-29T09:04:33;95671.63;;;1.06;84.50
6096;BME280;25081;42.698;23.298;2023-01-29T09:06:44;95670.16;;;1.08;84.58
6096;BME280;25081;42.698;23.298;2023-01-29T09:08:54;95675.25;;;1.27;84.46
6096;BME280;25081;42.698;23.298;2023-01-29T09:11:05;95675.89;;;1.07;83.26
6096;BME280;25081;42.698;23.298;2023-01-29T09:13:16;95671.38;;;1.00;84.37
6096;BME280;25081;42.698;23.298;2023-01-29T09:15:26;95666.42;;;1.14;86.08
6096;BME280;25081;42.698;23.298;2023-01-29T09:17:37;95664.92;;;1.30;84.48
6096;BME280;25081;42.698;23.298;2023-01-29T09:19:47;95669.94;;;1.41;83.35
6096;BME280;25081;42.698;23.298;2023-01-29T09:21:58;95659.43;;;1.41;83.45
6096;BME280;25081;42.698;23.298;2023-01-29T09:24:09;95668.28;;;1.18;82.98
6096;BME280;25081;42.698;23.298;2023-01-29T09:26:20;95668.42;;;0.99;83.89
6096;BME280;25081;42.698;23.298;2023-01-29T09:28:30;95673.45;;;1.10;83.57
6096;BME280;25081;42.698;23.298;2023-01-29T09:30:41;95670.83;;;1.10;82.97
6096;BME280;25081;42.698;23.298;2023-01-29T09:32:51;95666.90;;;0.96;83.67
6096;BME280;25081;42.698;23.298;2023-01-29T09:35:02;95667.86;;;1.09;83.64
6096;BME280;25081;42.698;23.298;2023-01-29T09:37:13;95664.11;;;1.11;83.86
6096;BME280;25081;42.698;23.298;2023-01-29T09:39:23;95655.56;;;1.27;83.53
6096;BME280;25081;42.698;23.298;2023-01-29T09:41:45;95650.55;;;1.38;83.37
6096;BME280;25081;42.698;23.298;2023-01-29T09:43:54;95648.08;;;1.58;82.50
6096;BME280;25081;42.698;23.298;2023-01-29T09:46:06;95651.73;;;1.43;81.49
6096;BME280;25081;42.698;23.298;2023-01-29T09:48:16;95654.18;;;1.41;82.01
6096;BME280;25081;42.698;23.298;2023-01-29T09:50:29;95648.53;;;1.14;82.21
6096;BME280;25081;42.698;23.298;2023-01-29T09:52:39;95647.30;;;1.22;82.48
6096;BME280;25081;42.698;23.298;2023-01-29T09:54:53;95647.38;;;0.95;82.96
6096;BME280;25081;42.698;23.298;2023-01-29T09:57:01;95647.63;;;1.05;83.67
6096;BME280;25081;42.698;23.298;2023-01-29T09:59:12;95652.86;;;1.01;83.38
6096;BME280;25081;42.698;23.298;2023-01-29T10:01:25;95654.83;;;0.85;83.19
6096;BME280;25081;42.698;23.298;2023-01-29T10:03:58;95649.50;;;0.95;83.89
6096;BME280;25081;42.698;23.298;2023-01-29T10:06:17;95649.63;;;0.90;83.88
6096;BME280;25081;42.698;23.298;2023-01-29T10:08:35;95646.23;;;1.15;84.26
6096;BME280;25081;42.698;23.298;2023-01-29T10:10:48;95639.50;;;1.12;83.34
6096;BME280;25081;42.698;23.298;2023-01-29T10:13:10;95638.83;;;1.10;83.21
6096;BME280;25081;42.698;23.298;2023-01-29T10:15:23;95641.56;;;1.05;83.54
6096;BME280;25081;42.698;23.298;2023-01-29T10:17:44;95640.78;;;0.91;84.17
6096;BME280;25081;42.698;23.298;2023-01-29T10:20:04;95636.92;;;0.81;84.25
6096;BME280;25081;42.698;23.298;2023-01-29T10:25:11;95629.48;;;0.94;84.48
6096;BME280;25081;42.698;23.298;2023-01-29T10:27:22;95634.72;;;1.08;84.56
6096;BME280;25081;42.698;23.298;2023-01-29T10:29:32;95628.81;;;0.92;83.47
6096;BME280;25081;42.698;23.298;2023-01-29T10:31:42;95629.22;;;0.83;84.51
6096;BME280;25081;42.698;23.298;2023-01-29T10:33:54;95628.48;;;0.91;84.23
6096;BME280;25081;42.698;23.298;2023-01-29T10:36:06;95625.47;;;1.04;84.36
6096;BME280;25081;42.698;23.298;2023-01-29T10:38:20;95621.92;;;0.91;84.31
6096;BME280;25081;42.698;23.298;2023-01-29T10:40:33;95622.36;;;0.86;83.94
6096;BME280;25081;42.698;23.298;2023-01-29T10:42:40;95625.94;;;0.99;83.78
6096;BME280;25081;42.698;23.298;2023-01-29T10:44:55;95618.81;;;0.92;83.82
6096;BME280;25081;42.698;23.298;2023-01-29T10:47:40;95619.40;;;0.85;84.52
6096;BME280;25081;42.698;23.298;2023-01-29T10:49:57;95630.36;;;0.81;85.36
6096;BME280;25081;42.698;23.298;2023-01-29T10:52:12;95615.87;;;0.77;84.72
6096;BME280;25081;42.698;23.298;2023-01-29T10:54:32;95617.61;;;0.68;84.66
6096;BME280;25081;42.698;23.298;2023-01-29T10:56:48;95615.33;;;0.69;85.19
6096;BME280;25081;42.698;23.298;2023-01-29T10:58:58;95617.18;;;0.77;85.90
6096;BME280;25081;42.698;23.298;2023-01-29T11:01:09;95615.41;;;0.77;85.34
6096;BME280;25081;42.698;23.298;2023-01-29T11:03:22;95612.14;;;0.79;84.96
6096;BME280;25081;42.698;23.298;2023-01-29T11:05:33;95613.95;;;0.79;85.42
6096;BME280;25081;42.698;23.298;2023-01-29T11:07:43;95607.54;;;0.77;85.45
6096;BME280;25081;42.698;23.298;2023-01-29T11:09:56;95609.88;;;0.84;84.73
6096;BME280;25081;42.698;23.298;2023-01-29T11:12:08;95603.47;;;0.83;84.30
6096;BME280;25081;42.698;23.298;2023-01-29T11:14:21;95602.65;;;1.00;84.95
6096;BME280;25081;42.698;23.298;2023-01-29T11:16:31;95598.80;;;1.12;84.53
6096;BME280;25081;42.698;23.298;2023-01-29T11:18:55;95600.59;;;1.08;83.72
6096;BME280;25081;42.698;23.298;2023-01-29T11:21:06;95597.64;;;0.89;83.93
6096;BME280;25081;42.698;23.298;2023-01-29T11:23:25;95592.80;;;0.80;84.60
6096;BME280;25081;42.698;23.298;2023-01-29T11:25:36;95594.83;;;0.69;84.87
6096;BME280;25081;42.698;23.298;2023-01-29T11:27:48;95598.35;;;0.77;84.41
6096;BME280;25081;42.698;23.298;2023-01-29T11:29:57;95591.17;;;0.83;84.45
6096;BME280;25081;42.698;23.298;2023-01-29T11:32:10;95586.31;;;0.89;84.06
6096;BME280;25081;42.698;23.298;2023-01-29T11:34:20;95587.47;;;0.90;83.96
6096;BME280;25081;42.698;23.298;2023-01-29T11:36:34;95586.81;;;1.10;84.00
6096;BME280;25081;42.698;23.298;2023-01-29T11:38:44;95577.24;;;1.05;83.72
6096;BME280;25081;42.698;23.298;2023-01-29T11:41:04;95571.75;;;0.76;84.59
6096;BME280;25081;42.698;23.298;2023-01-29T11:43:20;95570.66;;;1.01;84.48
6096;BME280;25081;42.698;23.298;2023-01-29T11:45:30;95566.56;;;1.24;83.54
6096;BME280;25081;42.698;23.298;2023-01-29T11:47:42;95565.64;;;1.33;83.01
6096;BME280;25081;42.698;23.298;2023-01-29T11:49:53;95564.77;;;1.51;82.95
6096;BME280;25081;42.698;23.298;2023-01-29T11:52:03;95566.41;;;1.52;81.93
6096;BME280;25081;42.698;23.298;2023-01-29T11:54:15;95561.49;;;1.53;81.89
6096;BME280;25081;42.698;23.298;2023-01-29T11:56:26;95568.16;;;1.65;82.16